sensor_id;sensor_type;location;lat;lon;timestamp;pressure;altitude;pressure_sealevel;temperature;humidity
20895;BME280;10607;42.066;24.742;2022-08-18T00:00:29;97804.69;;;28.83;40.81
20895;BME280;10607;42.066;24.742;2022-08-18T00:02:58;97811.84;;;28.76;41.26
20895;BME280;10607;42.066;24.742;2022-08-18T00:05:25;97808.53;;;28.66;41.46
20895;BME280;10607;42.066;24.742;2022-08-18T00:07:50;97811.91;;;28.68;41.55
20895;BME280;10607;42.066;24.742;2022-08-18T00:10:15;97804.31;;;28.63;41.38
20895;BME280;10607;42.066;24.742;2022-08-18T00:12:41;97811.25;;;28.66;41.17
20895;BME280;10607;42.066;24.742;2022-08-18T00:15:10;97811.25;;;28.66;41.35
20895;BME280;10607;42.066;24.742;2022-08-18T00:17:36;97812.78;;;28.60;41.11
20895;BME280;10607;42.066;24.742;2022-08-18T00:20:05;97821.25;;;28.65;40.88
20895;BME280;10607;42.066;24.742;2022-08-18T00:22:33;97810.88;;;28.69;41.29
20895;BME280;10607;42.066;24.742;2022-08-18T00:24:58;97819.38;;;28.66;40.92
20895;BME280;10607;42.066;24.742;2022-08-18T00:27:27;97816.00;;;28.64;41.63
20895;BME280;10607;42.066;24.742;2022-08-18T00:29:53;97811.59;;;28.63;40.99
20895;BME280;10607;42.066;24.742;2022-08-18T00:32:28;97813.56;;;28.69;41.44
20895;BME280;10607;42.066;24.742;2022-08-18T00:34:55;97812.91;;;28.67;41.21
20895;BME280;10607;42.066;24.742;2022-08-18T00:37:21;97801.56;;;28.71;41.39
20895;BME280;10607;42.066;24.742;2022-08-18T00:39:49;97795.66;;;28.68;40.89
20895;BME280;10607;42.066;24.742;2022-08-18T00:42:21;97799.25;;;28.60;41.54
20895;BME280;10607;42.066;24.742;2022-08-18T00:44:47;97803.16;;;28.57;41.94
20895;BME280;10607;42.066;24.742;2022-08-18T00:47:13;97801.47;;;28.56;41.14
20895;BME280;10607;42.066;24.742;2022-08-18T00:49:40;97795.72;;;28.60;41.63
20895;BME280;10607;42.066;24.742;2022-08-18T00:52:08;97800.81;;;28.54;41.64
20895;BME280;10607;42.066;24.742;2022-08-18T00:54:36;97803.22;;;28.49;41.65
20895;BME280;10607;42.066;24.742;2022-08-18T00:57:04;97805.94;;;28.41;41.86
20895;BME280;10607;42.066;24.742;2022-08-18T00:59:51;97816.09;;;28.39;42.33
20895;BME280;10607;42.066;24.742;2022-08-18T01:02:29;97817.75;;;28.40;41.92
20895;BME280;10607;42.066;24.742;2022-08-18T01:07:58;97801.41;;;28.33;41.93
20895;BME280;10607;42.066;24.742;2022-08-18T01:10:24;97811.69;;;28.38;41.81
20895;BME280;10607;42.066;24.742;2022-08-18T01:12:55;97811.72;;;28.30;42.51
20895;BME280;10607;42.066;24.742;2022-08-18T01:15:22;97807.34;;;28.29;42.72
20895;BME280;10607;42.066;24.742;2022-08-18T01:17:48;97815.59;;;28.35;42.25
20895;BME280;10607;42.066;24.742;2022-08-18T01:20:40;97812.72;;;28.37;42.21
20895;BME280;10607;42.066;24.742;2022-08-18T01:23:27;97810.06;;;28.29;42.30
20895;BME280;10607;42.066;24.742;2022-08-18T01:25:54;97801.59;;;28.24;41.98
20895;BME280;10607;42.066;24.742;2022-08-18T01:28:28;97811.25;;;28.26;42.28
20895;BME280;10607;42.066;24.742;2022-08-18T01:30:55;97809.34;;;28.35;42.33
20895;BME280;10607;42.066;24.742;2022-08-18T01:33:30;97811.50;;;28.40;42.33
20895;BME280;10607;42.066;24.742;2022-08-18T01:35:59;97806.81;;;28.33;42.84
20895;BME280;10607;42.066;24.742;2022-08-18T01:38:25;97807.69;;;28.26;42.55
20895;BME280;10607;42.066;24.742;2022-08-18T01:40:51;97797.41;;;28.21;42.44
20895;BME280;10607;42.066;24.742;2022-08-18T01:43:16;97800.59;;;28.25;42.67
20895;BME280;10607;42.066;24.742;2022-08-18T01:45:42;97796.84;;;28.26;42.21
20895;BME280;10607;42.066;24.742;2022-08-18T01:48:07;97800.47;;;28.18;43.20
20895;BME280;10607;42.066;24.742;2022-08-18T01:50:35;97804.72;;;28.12;43.20
20895;BME280;10607;42.066;24.742;2022-08-18T01:53:04;97800.50;;;28.10;42.99
20895;BME280;10607;42.066;24.742;2022-08-18T01:55:34;97814.06;;;28.02;43.38
20895;BME280;10607;42.066;24.742;2022-08-18T01:58:00;97811.88;;;27.97;43.41
20895;BME280;10607;42.066;24.742;2022-08-18T02:00:26;97809.66;;;28.01;43.12
20895;BME280;10607;42.066;24.742;2022-08-18T02:02:52;97815.44;;;27.97;43.31
20895;BME280;10607;42.066;24.742;2022-08-18T02:05:22;97813.94;;;27.95;43.74
20895;BME280;10607;42.066;24.742;2022-08-18T02:07:49;97808.16;;;27.98;43.06
20895;BME280;10607;42.066;24.742;2022-08-18T02:10:14;97804.94;;;27.94;43.85
20895;BME280;10607;42.066;24.742;2022-08-18T02:12:40;97804.47;;;27.91;43.88
20895;BME280;10607;42.066;24.742;2022-08-18T02:15:07;97802.44;;;27.93;43.03
20895;BME280;10607;42.066;24.742;2022-08-18T02:17:41;97800.41;;;27.95;43.72
20895;BME280;10607;42.066;24.742;2022-08-18T02:20:10;97800.56;;;27.93;43.33
20895;BME280;10607;42.066;24.742;2022-08-18T02:22:36;97799.03;;;27.99;43.52
20895;BME280;10607;42.066;24.742;2022-08-18T02:25:02;97801.53;;;28.01;43.61
20895;BME280;10607;42.066;24.742;2022-08-18T02:27:28;97803.94;;;27.95;43.39
20895;BME280;10607;42.066;24.742;2022-08-18T02:29:53;97802.91;;;27.96;43.30
20895;BME280;10607;42.066;24.742;2022-08-18T02:32:19;97800.72;;;27.92;43.54
20895;BME280;10607;42.066;24.742;2022-08-18T02:34:44;97795.84;;;27.87;44.10
20895;BME280;10607;42.066;24.742;2022-08-18T02:37:10;97798.69;;;27.86;43.37
20895;BME280;10607;42.066;24.742;2022-08-18T02:39:36;97791.94;;;27.82;44.26
20895;BME280;10607;42.066;24.742;2022-08-18T02:42:04;97794.34;;;27.76;43.53
20895;BME280;10607;42.066;24.742;2022-08-18T02:44:30;97793.47;;;27.76;43.81
20895;BME280;10607;42.066;24.742;2022-08-18T02:46:56;97789.94;;;27.75;44.16
20895;BME280;10607;42.066;24.742;2022-08-18T02:49:22;97802.28;;;27.70;44.76
20895;BME280;10607;42.066;24.742;2022-08-18T02:51:50;97790.78;;;27.68;44.02
20895;BME280;10607;42.066;24.742;2022-08-18T02:54:17;97795.03;;;27.70;44.19
20895;BME280;10607;42.066;24.742;2022-08-18T02:56:43;97799.09;;;27.66;44.42
20895;BME280;10607;42.066;24.742;2022-08-18T02:59:15;97794.03;;;27.63;44.27
20895;BME280;10607;42.066;24.742;2022-08-18T03:01:44;97788.63;;;27.63;44.37
20895;BME280;10607;42.066;24.742;2022-08-18T03:04:12;97796.41;;;27.58;44.76
20895;BME280;10607;42.066;24.742;2022-08-18T03:06:38;97805.22;;;27.52;44.86
20895;BME280;10607;42.066;24.742;2022-08-18T03:09:05;97810.13;;;27.48;45.43
20895;BME280;10607;42.066;24.742;2022-08-18T03:11:31;97807.25;;;27.42;45.41
20895;BME280;10607;42.066;24.742;2022-08-18T03:13:57;97803.22;;;27.37;44.98
20895;BME280;10607;42.066;24.742;2022-08-18T03:16:24;97806.75;;;27.38;44.68
20895;BME280;10607;42.066;24.742;2022-08-18T03:18:51;97811.81;;;27.49;44.72
20895;BME280;10607;42.066;24.742;2022-08-18T03:21:23;97809.44;;;27.54;44.63
20895;BME280;10607;42.066;24.742;2022-08-18T03:23:51;97810.09;;;27.56;44.77
20895;BME280;10607;42.066;24.742;2022-08-18T03:26:18;97807.09;;;27.51;44.95
20895;BME280;10607;42.066;24.742;2022-08-18T03:28:46;97817.53;;;27.54;44.76
20895;BME280;10607;42.066;24.742;2022-08-18T03:31:13;97812.63;;;27.58;44.96
20895;BME280;10607;42.066;24.742;2022-08-18T03:33:40;97815.00;;;27.53;44.95
20895;BME280;10607;42.066;24.742;2022-08-18T03:36:19;97815.34;;;27.50;45.09
20895;BME280;10607;42.066;24.742;2022-08-18T03:38:45;97809.94;;;27.50;45.06
20895;BME280;10607;42.066;24.742;2022-08-18T03:41:14;97813.66;;;27.49;44.70
20895;BME280;10607;42.066;24.742;2022-08-18T03:43:40;97806.06;;;27.44;45.08
20895;BME280;10607;42.066;24.742;2022-08-18T03:46:08;97814.31;;;27.51;44.85
20895;BME280;10607;42.066;24.742;2022-08-18T03:48:36;97809.75;;;27.60;44.60
20895;BME280;10607;42.066;24.742;2022-08-18T03:51:08;97810.91;;;27.65;43.89
20895;BME280;10607;42.066;24.742;2022-08-18T03:53:36;97808.34;;;27.72;44.63
20895;BME280;10607;42.066;24.742;2022-08-18T03:56:06;97815.13;;;27.76;44.55
20895;BME280;10607;42.066;24.742;2022-08-18T03:58:33;97811.38;;;27.85;44.16
20895;BME280;10607;42.066;24.742;2022-08-18T04:00:59;97822.03;;;27.95;43.71
20895;BME280;10607;42.066;24.742;2022-08-18T04:03:27;97821.84;;;27.96;43.39
20895;BME280;10607;42.066;24.742;2022-08-18T04:05:53;97813.69;;;28.05;43.67
20895;BME280;10607;42.066;24.742;2022-08-18T04:08:18;97821.50;;;28.00;44.04
20895;BME280;10607;42.066;24.742;2022-08-18T04:10:43;97821.34;;;28.01;44.18
20895;BME280;10607;42.066;24.742;2022-08-18T04:13:09;97828.94;;;28.06;43.77
20895;BME280;10607;42.066;24.742;2022-08-18T04:15:36;97828.78;;;28.07;44.79
20895;BME280;10607;42.066;24.742;2022-08-18T04:18:01;97824.34;;;28.06;44.34
20895;BME280;10607;42.066;24.742;2022-08-18T04:20:31;97827.41;;;28.11;44.48
20895;BME280;10607;42.066;24.742;2022-08-18T04:22:57;97841.41;;;28.15;44.23
20895;BME280;10607;42.066;24.742;2022-08-18T04:25:23;97841.91;;;28.18;44.82
20895;BME280;10607;42.066;24.742;2022-08-18T04:27:50;97842.94;;;28.17;45.03
20895;BME280;10607;42.066;24.742;2022-08-18T04:30:16;97849.03;;;28.11;44.93
20895;BME280;10607;42.066;24.742;2022-08-18T04:32:41;97833.16;;;28.00;45.59
20895;BME280;10607;42.066;24.742;2022-08-18T04:35:08;97847.41;;;27.94;45.81
20895;BME280;10607;42.066;24.742;2022-08-18T04:37:36;97845.38;;;27.88;46.41
20895;BME280;10607;42.066;24.742;2022-08-18T04:40:02;97843.84;;;27.93;45.91
20895;BME280;10607;42.066;24.742;2022-08-18T04:42:28;97848.72;;;27.98;46.05
20895;BME280;10607;42.066;24.742;2022-08-18T04:44:53;97843.97;;;28.08;44.86
20895;BME280;10607;42.066;24.742;2022-08-18T04:47:19;97857.59;;;28.23;45.40
20895;BME280;10607;42.066;24.742;2022-08-18T04:49:45;97853.66;;;28.34;44.86
20895;BME280;10607;42.066;24.742;2022-08-18T04:52:10;97847.38;;;28.42;44.78
20895;BME280;10607;42.066;24.742;2022-08-18T04:54:54;97853.78;;;28.49;44.75
20895;BME280;10607;42.066;24.742;2022-08-18T04:57:20;97847.69;;;28.55;44.07
20895;BME280;10607;42.066;24.742;2022-08-18T04:59:48;97847.13;;;28.68;44.29
20895;BME280;10607;42.066;24.742;2022-08-18T05:02:15;97849.59;;;28.77;44.09
20895;BME280;10607;42.066;24.742;2022-08-18T05:04:42;97851.09;;;28.80;44.73
20895;BME280;10607;42.066;24.742;2022-08-18T05:07:12;97846.84;;;28.86;45.00
20895;BME280;10607;42.066;24.742;2022-08-18T05:09:38;97849.84;;;28.91;45.06
20895;BME280;10607;42.066;24.742;2022-08-18T05:12:05;97855.88;;;29.01;44.85
20895;BME280;10607;42.066;24.742;2022-08-18T05:14:32;97857.50;;;29.10;45.24
20895;BME280;10607;42.066;24.742;2022-08-18T05:16:58;97850.03;;;29.12;44.53
20895;BME280;10607;42.066;24.742;2022-08-18T05:19:24;97854.75;;;29.18;44.66
20895;BME280;10607;42.066;24.742;2022-08-18T05:21:51;97858.25;;;29.27;45.00
20895;BME280;10607;42.066;24.742;2022-08-18T05:24:19;97855.94;;;29.39;44.61
20895;BME280;10607;42.066;24.742;2022-08-18T05:26:46;97852.78;;;29.50;44.35
20895;BME280;10607;42.066;24.742;2022-08-18T05:29:13;97853.72;;;29.57;43.63
20895;BME280;10607;42.066;24.742;2022-08-18T05:31:39;97846.50;;;29.73;44.15
20895;BME280;10607;42.066;24.742;2022-08-18T05:34:05;97852.31;;;29.85;42.01
20895;BME280;10607;42.066;24.742;2022-08-18T05:36:39;97853.72;;;29.95;41.91
20895;BME280;10607;42.066;24.742;2022-08-18T05:41:45;97856.13;;;30.20;41.15
20895;BME280;10607;42.066;24.742;2022-08-18T05:44:14;97860.09;;;30.32;40.63
20895;BME280;10607;42.066;24.742;2022-08-18T05:46:49;97861.88;;;30.40;41.32
20895;BME280;10607;42.066;24.742;2022-08-18T05:49:19;97859.72;;;30.50;41.20
20895;BME280;10607;42.066;24.742;2022-08-18T05:51:52;97854.56;;;30.55;41.17
20895;BME280;10607;42.066;24.742;2022-08-18T05:54:20;97862.22;;;30.67;40.88
20895;BME280;10607;42.066;24.742;2022-08-18T05:57:09;97856.19;;;30.71;41.19
20895;BME280;10607;42.066;24.742;2022-08-18T05:59:40;97853.56;;;30.78;40.41
20895;BME280;10607;42.066;24.742;2022-08-18T06:02:33;97858.53;;;30.89;40.56
20895;BME280;10607;42.066;24.742;2022-08-18T06:05:03;97851.72;;;31.00;39.16
20895;BME280;10607;42.066;24.742;2022-08-18T06:07:36;97864.31;;;31.01;39.87
20895;BME280;10607;42.066;24.742;2022-08-18T06:10:06;97865.00;;;31.10;39.80
20895;BME280;10607;42.066;24.742;2022-08-18T06:12:35;97868.72;;;31.24;39.60
20895;BME280;10607;42.066;24.742;2022-08-18T06:28:37;97874.69;;;31.84;38.40
20895;BME280;10607;42.066;24.742;2022-08-18T06:31:19;97874.53;;;31.92;39.76
20895;BME280;10607;42.066;24.742;2022-08-18T06:36:27;97870.09;;;32.12;39.37
20895;BME280;10607;42.066;24.742;2022-08-18T06:41:46;97874.34;;;32.28;37.48
20895;BME280;10607;42.066;24.742;2022-08-18T06:46:58;97870.38;;;32.31;37.50
20895;BME280;10607;42.066;24.742;2022-08-18T06:52:35;97875.00;;;32.37;37.33
20895;BME280;10607;42.066;24.742;2022-08-18T06:55:11;97883.25;;;32.44;36.74
20895;BME280;10607;42.066;24.742;2022-08-18T06:58:01;97886.63;;;32.52;37.25
20895;BME280;10607;42.066;24.742;2022-08-18T07:00:29;97885.69;;;32.67;37.31
20895;BME280;10607;42.066;24.742;2022-08-18T07:05:27;97884.88;;;32.86;36.63
20895;BME280;10607;42.066;24.742;2022-08-18T07:08:09;97894.34;;;32.90;36.38
20895;BME280;10607;42.066;24.742;2022-08-18T07:10:47;97894.41;;;33.04;36.06
20895;BME280;10607;42.066;24.742;2022-08-18T07:13:26;97890.25;;;33.08;36.20
20895;BME280;10607;42.066;24.742;2022-08-18T07:15:54;97889.63;;;33.12;36.32
20895;BME280;10607;42.066;24.742;2022-08-18T07:18:23;97893.22;;;33.26;36.20
20895;BME280;10607;42.066;24.742;2022-08-18T07:20:57;97896.38;;;33.36;35.69
20895;BME280;10607;42.066;24.742;2022-08-18T07:23:30;97899.13;;;33.36;35.83
20895;BME280;10607;42.066;24.742;2022-08-18T07:26:01;97891.97;;;33.49;36.09
20895;BME280;10607;42.066;24.742;2022-08-18T07:28:33;97895.34;;;33.57;35.90
20895;BME280;10607;42.066;24.742;2022-08-18T07:33:42;97893.44;;;33.58;35.11
20895;BME280;10607;42.066;24.742;2022-08-18T07:36:13;97893.91;;;33.62;35.10
20895;BME280;10607;42.066;24.742;2022-08-18T07:38:45;97891.59;;;33.72;35.63
20895;BME280;10607;42.066;24.742;2022-08-18T07:41:25;97882.75;;;33.83;35.57
20895;BME280;10607;42.066;24.742;2022-08-18T07:44:15;97880.25;;;33.88;35.25
20895;BME280;10607;42.066;24.742;2022-08-18T07:49:22;97888.22;;;34.03;35.11
20895;BME280;10607;42.066;24.742;2022-08-18T07:52:24;97887.38;;;34.03;34.69
20895;BME280;10607;42.066;24.742;2022-08-18T07:57:30;97884.63;;;34.23;34.81
20895;BME280;10607;42.066;24.742;2022-08-18T08:00:21;97882.25;;;34.40;35.02
20895;BME280;10607;42.066;24.742;2022-08-18T08:06:04;97883.50;;;34.50;34.12
20895;BME280;10607;42.066;24.742;2022-08-18T08:08:48;58645.81;;;-146.21;100.00
20895;BME280;10607;42.066;24.742;2022-08-18T08:16:38;58645.81;;;-146.21;100.00
20895;BME280;10607;42.066;24.742;2022-08-18T08:21:49;58645.81;;;-146.21;100.00
20895;BME280;10607;42.066;24.742;2022-08-18T08:24:28;58645.81;;;-146.21;100.00
20895;BME280;10607;42.066;24.742;2022-08-18T08:27:23;58645.81;;;-146.21;100.00
20895;BME280;10607;42.066;24.742;2022-08-18T08:30:09;58645.81;;;-146.21;100.00
20895;BME280;10607;42.066;24.742;2022-08-18T08:35:42;58645.81;;;-146.21;100.00
20895;BME280;10607;42.066;24.742;2022-08-18T08:38:48;58645.81;;;-146.21;100.00
20895;BME280;10607;42.066;24.742;2022-08-18T08:41:27;58645.81;;;-146.21;100.00
20895;BME280;10607;42.066;24.742;2022-08-18T08:44:14;58645.81;;;-146.21;100.00
20895;BME280;10607;42.066;24.742;2022-08-18T08:47:04;58645.81;;;-146.21;100.00
20895;BME280;10607;42.066;24.742;2022-08-18T08:49:48;58645.81;;;-146.21;100.00
20895;BME280;10607;42.066;24.742;2022-08-18T08:52:20;58645.81;;;-146.21;100.00
20895;BME280;10607;42.066;24.742;2022-08-18T08:54:51;58645.81;;;-146.21;100.00
20895;BME280;10607;42.066;24.742;2022-08-18T08:57:21;58645.81;;;-146.21;100.00
20895;BME280;10607;42.066;24.742;2022-08-18T08:59:50;58645.81;;;-146.21;100.00
20895;BME280;10607;42.066;24.742;2022-08-18T09:16:07;58645.81;;;-146.21;100.00
20895;BME280;10607;42.066;24.742;2022-08-18T09:21:30;58645.81;;;-146.21;100.00
20895;BME280;10607;42.066;24.742;2022-08-18T09:24:11;58645.81;;;-146.21;100.00
20895;BME280;10607;42.066;24.742;2022-08-18T09:29:47;58645.81;;;-146.21;100.00
20895;BME280;10607;42.066;24.742;2022-08-18T09:37:54;58645.81;;;-146.21;100.00
20895;BME280;10607;42.066;24.742;2022-08-18T09:41:17;58645.81;;;-146.21;100.00
20895;BME280;10607;42.066;24.742;2022-08-18T09:44:13;58645.81;;;-146.21;100.00
20895;BME280;10607;42.066;24.742;2022-08-18T09:46:51;58645.81;;;-146.21;100.00
20895;BME280;10607;42.066;24.742;2022-08-18T09:51:48;58645.81;;;-146.21;100.00
20895;BME280;10607;42.066;24.742;2022-08-18T09:54:20;58645.81;;;-146.21;100.00
20895;BME280;10607;42.066;24.742;2022-08-18T10:02:09;58645.81;;;-146.21;100.00
20895;BME280;10607;42.066;24.742;2022-08-18T10:04:37;58645.81;;;-146.21;100.00
20895;BME280;10607;42.066;24.742;2022-08-18T10:07:33;58645.81;;;-146.21;100.00
20895;BME280;10607;42.066;24.742;2022-08-18T10:13:17;58645.81;;;-146.21;100.00
20895;BME280;10607;42.066;24.742;2022-08-18T10:21:17;58645.81;;;-146.21;100.00
20895;BME280;10607;42.066;24.742;2022-08-18T10:29:00;58645.81;;;-146.21;100.00
20895;BME280;10607;42.066;24.742;2022-08-18T10:31:28;58645.81;;;-146.21;100.00
20895;BME280;10607;42.066;24.742;2022-08-18T10:34:04;58645.81;;;-146.21;100.00
20895;BME280;10607;42.066;24.742;2022-08-18T10:36:59;58645.81;;;-146.21;100.00
20895;BME280;10607;42.066;24.742;2022-08-18T10:39:47;58645.81;;;-146.21;100.00
20895;BME280;10607;42.066;24.742;2022-08-18T10:42:22;58645.81;;;-146.21;100.00
20895;BME280;10607;42.066;24.742;2022-08-18T10:44:52;58645.81;;;-146.21;100.00
20895;BME280;10607;42.066;24.742;2022-08-18T10:47:26;58645.81;;;-146.21;100.00
20895;BME280;10607;42.066;24.742;2022-08-18T10:49:52;58645.81;;;-146.21;100.00
20895;BME280;10607;42.066;24.742;2022-08-18T10:55:42;58645.81;;;-146.21;100.00
20895;BME280;10607;42.066;24.742;2022-08-18T11:06:09;58645.81;;;-146.21;100.00
20895;BME280;10607;42.066;24.742;2022-08-18T11:08:43;58645.81;;;-146.21;100.00
20895;BME280;10607;42.066;24.742;2022-08-18T11:11:11;58645.81;;;-146.21;100.00
20895;BME280;10607;42.066;24.742;2022-08-18T11:19:08;58645.81;;;-146.21;100.00
20895;BME280;10607;42.066;24.742;2022-08-18T11:24:21;58645.81;;;-146.21;100.00
20895;BME280;10607;42.066;24.742;2022-08-18T11:29:23;58645.81;;;-146.21;100.00
20895;BME280;10607;42.066;24.742;2022-08-18T11:32:18;58645.81;;;-146.21;100.00
20895;BME280;10607;42.066;24.742;2022-08-18T11:34:47;58645.81;;;-146.21;100.00
20895;BME280;10607;42.066;24.742;2022-08-18T11:37:34;58645.81;;;-146.21;100.00
20895;BME280;10607;42.066;24.742;2022-08-18T11:40:04;58645.81;;;-146.21;100.00
20895;BME280;10607;42.066;24.742;2022-08-18T11:42:36;58645.81;;;-146.21;100.00
20895;BME280;10607;42.066;24.742;2022-08-18T11:47:28;58645.81;;;-146.21;100.00
20895;BME280;10607;42.066;24.742;2022-08-18T11:50:09;58645.81;;;-146.21;100.00
20895;BME280;10607;42.066;24.742;2022-08-18T11:52:51;58645.81;;;-146.21;100.00
20895;BME280;10607;42.066;24.742;2022-08-18T11:55:19;58645.81;;;-146.21;100.00
20895;BME280;10607;42.066;24.742;2022-08-18T11:57:53;58645.81;;;-146.21;100.00
20895;BME280;10607;42.066;24.742;2022-08-18T12:00:38;58645.81;;;-146.21;100.00
20895;BME280;10607;42.066;24.742;2022-08-18T12:06:08;58645.81;;;-146.21;100.00
20895;BME280;10607;42.066;24.742;2022-08-18T12:08:48;58645.81;;;-146.21;100.00
20895;BME280;10607;42.066;24.742;2022-08-18T12:11:22;58645.81;;;-146.21;100.00
20895;BME280;10607;42.066;24.742;2022-08-18T12:14:01;58645.81;;;-146.21;100.00
20895;BME280;10607;42.066;24.742;2022-08-18T12:16:31;58645.81;;;-146.21;100.00
20895;BME280;10607;42.066;24.742;2022-08-18T12:18:57;58645.81;;;-146.21;100.00
20895;BME280;10607;42.066;24.742;2022-08-18T12:21:23;58645.81;;;-146.21;100.00
20895;BME280;10607;42.066;24.742;2022-08-18T12:23:48;58645.81;;;-146.21;100.00
20895;BME280;10607;42.066;24.742;2022-08-18T12:26:14;58645.81;;;-146.21;100.00
20895;BME280;10607;42.066;24.742;2022-08-18T12:28:40;58645.81;;;-146.21;100.00
20895;BME280;10607;42.066;24.742;2022-08-18T12:31:07;58645.81;;;-146.21;100.00
20895;BME280;10607;42.066;24.742;2022-08-18T12:33:34;58645.81;;;-146.21;100.00
20895;BME280;10607;42.066;24.742;2022-08-18T12:36:01;58645.81;;;-146.21;100.00
20895;BME280;10607;42.066;24.742;2022-08-18T12:38:26;58645.81;;;-146.21;100.00
20895;BME280;10607;42.066;24.742;2022-08-18T12:40:52;58645.81;;;-146.21;100.00
20895;BME280;10607;42.066;24.742;2022-08-18T12:43:18;58645.81;;;-146.21;100.00
20895;BME280;10607;42.066;24.742;2022-08-18T12:45:43;58645.81;;;-146.21;100.00
20895;BME280;10607;42.066;24.742;2022-08-18T12:48:09;58645.81;;;-146.21;100.00
20895;BME280;10607;42.066;24.742;2022-08-18T12:50:36;58645.81;;;-146.21;100.00
20895;BME280;10607;42.066;24.742;2022-08-18T12:53:02;58645.81;;;-146.21;100.00
20895;BME280;10607;42.066;24.742;2022-08-18T12:55:31;58645.81;;;-146.21;100.00
20895;BME280;10607;42.066;24.742;2022-08-18T12:57:57;58645.81;;;-146.21;100.00
20895;BME280;10607;42.066;24.742;2022-08-18T13:00:23;58645.81;;;-146.21;100.00
20895;BME280;10607;42.066;24.742;2022-08-18T13:02:48;58645.81;;;-146.21;100.00
20895;BME280;10607;42.066;24.742;2022-08-18T13:05:14;58645.81;;;-146.21;100.00
20895;BME280;10607;42.066;24.742;2022-08-18T13:07:39;58645.81;;;-146.21;100.00
20895;BME280;10607;42.066;24.742;2022-08-18T13:10:06;58645.81;;;-146.21;100.00
20895;BME280;10607;42.066;24.742;2022-08-18T13:12:31;58645.81;;;-146.21;100.00
20895;BME280;10607;42.066;24.742;2022-08-18T13:14:57;58645.81;;;-146.21;100.00
20895;BME280;10607;42.066;24.742;2022-08-18T13:17:22;58645.81;;;-146.21;100.00
20895;BME280;10607;42.066;24.742;2022-08-18T13:19:48;58645.81;;;-146.21;100.00
20895;BME280;10607;42.066;24.742;2022-08-18T13:22:14;58645.81;;;-146.21;100.00
20895;BME280;10607;42.066;24.742;2022-08-18T13:24:40;58645.81;;;-146.21;100.00
20895;BME280;10607;42.066;24.742;2022-08-18T13:27:05;58645.81;;;-146.21;100.00
20895;BME280;10607;42.066;24.742;2022-08-18T13:29:31;58645.81;;;-146.21;100.00
20895;BME280;10607;42.066;24.742;2022-08-18T13:31:56;58645.81;;;-146.21;100.00
20895;BME280;10607;42.066;24.742;2022-08-18T13:34:25;58645.81;;;-146.21;100.00
20895;BME280;10607;42.066;24.742;2022-08-18T13:36:52;58645.81;;;-146.21;100.00
20895;BME280;10607;42.066;24.742;2022-08-18T13:39:20;58645.81;;;-146.21;100.00
20895;BME280;10607;42.066;24.742;2022-08-18T13:41:51;58645.81;;;-146.21;100.00
20895;BME280;10607;42.066;24.742;2022-08-18T13:44:18;58645.81;;;-146.21;100.00
20895;BME280;10607;42.066;24.742;2022-08-18T13:46:46;58645.81;;;-146.21;100.00
20895;BME280;10607;42.066;24.742;2022-08-18T13:49:17;58645.81;;;-146.21;100.00
20895;BME280;10607;42.066;24.742;2022-08-18T13:51:44;58645.81;;;-146.21;100.00
20895;BME280;10607;42.066;24.742;2022-08-18T13:54:23;58645.81;;;-146.21;100.00
20895;BME280;10607;42.066;24.742;2022-08-18T13:56:49;58645.81;;;-146.21;100.00
20895;BME280;10607;42.066;24.742;2022-08-18T13:59:15;58645.81;;;-146.21;100.00
20895;BME280;10607;42.066;24.742;2022-08-18T14:01:41;58645.81;;;-146.21;100.00
20895;BME280;10607;42.066;24.742;2022-08-18T14:04:07;58645.81;;;-146.21;100.00
20895;BME280;10607;42.066;24.742;2022-08-18T14:06:33;58645.81;;;-146.21;100.00
20895;BME280;10607;42.066;24.742;2022-08-18T14:08:59;58645.81;;;-146.21;100.00
20895;BME280;10607;42.066;24.742;2022-08-18T14:11:28;58645.81;;;-146.21;100.00
20895;BME280;10607;42.066;24.742;2022-08-18T14:13:55;58645.81;;;-146.21;100.00
20895;BME280;10607;42.066;24.742;2022-08-18T14:16:23;58645.81;;;-146.21;100.00
20895;BME280;10607;42.066;24.742;2022-08-18T14:18:48;58645.81;;;-146.21;100.00
20895;BME280;10607;42.066;24.742;2022-08-18T14:21:34;58645.81;;;-146.21;100.00
20895;BME280;10607;42.066;24.742;2022-08-18T14:24:19;58645.81;;;-146.21;100.00
20895;BME280;10607;42.066;24.742;2022-08-18T14:27:03;58645.81;;;-146.21;100.00
20895;BME280;10607;42.066;24.742;2022-08-18T14:29:28;58645.81;;;-146.21;100.00
20895;BME280;10607;42.066;24.742;2022-08-18T14:31:54;58645.81;;;-146.21;100.00
20895;BME280;10607;42.066;24.742;2022-08-18T14:34:19;58645.81;;;-146.21;100.00
20895;BME280;10607;42.066;24.742;2022-08-18T14:36:45;58645.81;;;-146.21;100.00
20895;BME280;10607;42.066;24.742;2022-08-18T14:39:10;58645.81;;;-146.21;100.00
20895;BME280;10607;42.066;24.742;2022-08-18T14:41:36;58645.81;;;-146.21;100.00
20895;BME280;10607;42.066;24.742;2022-08-18T14:44:02;58645.81;;;-146.21;100.00
20895;BME280;10607;42.066;24.742;2022-08-18T14:46:27;58645.81;;;-146.21;100.00
20895;BME280;10607;42.066;24.742;2022-08-18T14:48:53;58645.81;;;-146.21;100.00
20895;BME280;10607;42.066;24.742;2022-08-18T14:51:18;58645.81;;;-146.21;100.00
20895;BME280;10607;42.066;24.742;2022-08-18T14:53:44;58645.81;;;-146.21;100.00
20895;BME280;10607;42.066;24.742;2022-08-18T14:56:09;58645.81;;;-146.21;100.00
20895;BME280;10607;42.066;24.742;2022-08-18T14:58:36;58645.81;;;-146.21;100.00
20895;BME280;10607;42.066;24.742;2022-08-18T15:01:06;58645.81;;;-146.21;100.00
20895;BME280;10607;42.066;24.742;2022-08-18T15:03:33;58645.81;;;-146.21;100.00